NEW HOGAN LAKE (NHG)

Elevation: 554' · CALAVERAS R basin · Operator: US Army Corps of Engineers

Provisional data, subject to change.
Query executed Friday at 21:21:46   clock

Select a sensor type for a plot of data.
Note: Reservoir Flows are daily averages.

Earlier

Date RES ELE    STORAGE    RES CHG    TOC STO    ABV TOC    OUTFLOW    INFLOW    FNF    PPT INC    TEMP MN    TEMP MX   
 FEET   AF   AF   AF   AF   CFS   CFS   CFS   INCHES   DEG F   DEG F  
10/01/2014 614.29 43914 -179 314400 -270486 71 -7 -7 0.00 12 30
10/02/2014 614.16 43736 -178 311690 -267954 85 9 9 0.01 13 33
10/03/2014 613.99 43503 -233 308990 -265487 101 -2 -2 0.00 15 35
10/04/2014 613.83 43284 -219 306280 -262996 106 10 10 0.00 15 35
10/05/2014 613.68 43080 -204 303580 -260500 98 9 9 0.00 15 35
10/06/2014 613.56 42917 -163 300870 -257953 78 9 9 0.00 15 34
10/07/2014 613.44 42755 -162 298170 -255415 71 2 2 0.01 16 32
10/08/2014 613.34 42619 -136 295460 -252841 55 2 2 0.00 14 34
10/09/2014 613.26 42512 -107 292760 -250248 48 6 6 0.00 14 31
10/10/2014 613.19 42417 -95 290050 -247633 37 -0 0 0.00 13 28
10/11/2014 613.16 42377 -40 287350 -244973 14 4 4 0.00 13 30
10/12/2014 613.13 42336 -41 284641 -242304 13 4 4 0.00 12 31
10/13/2014 613.10 42296 -40 281936 -239644 10 3 3 0.00 15 33
10/14/2014 613.06 42242 -54 279231 -236988 10 -8 -- 0.00 13 26
10/15/2014 613.04 42215 -27 276526 -234311 r 11 3 3 0.00 13 24
10/16/2014 613.02 42189 -26 273821 -231632 11 5 5 0.00 11 24
10/17/2014 612.99 42148 -41 271116 -228968 11 -2 -2 0.00 11 25
10/18/2014 612.93 42068 -80 268411 -226343 30 -1 -1 0.00 12 26
10/19/2014 612.85 41961 -107 265707 -223746 56 11 -- 0.00 11 28
10/20/2014 612.72 41787 -174 263002 -221215 71 -10 -10 0.00 13 24
10/21/2014 612.63 41667 -120 260297 -218630 65 12 12 0.00 9 21
10/22/2014 612.52 41521 -146 257592 -216071 59 -7 -7 0.00 10 23
10/23/2014 612.43 41401 -120 254887 -213486 58 5 -- 0.00 12 25
10/24/2014 612.35 41295 -106 252182 -210887 48 3 3 0.00 10 29
10/25/2014 612.35 41295 0 249477 -208182 24 28 28 0.40 12 20
10/26/2014 612.32 41255 -40 246772 -205517 9 -4 -4 0.01 10 20
10/27/2014 612.30 41229 -26 244067 -202838 10 2 2 0.00 6 19
10/28/2014 612.27 41189 -40 241362 -200173 10 -3 -3 0.00 8 24
10/29/2014 612.26 41176 -13 238657 -197481 8 10 10 0.00 10 27
10/30/2014 612.23 41136 -40 235952 -194816 -- -- -- -- -- --
10/31/2014 -- -- -- -- -- -- -- -- -- -- --

Later | Latest

Warning! This data is preliminary and subject to revision.

Show NHG Map | Plot NHG Data | 1 Month NHG Data | Real-Time NHG Data | NHG Info